Time;durP1;ratioP1;P1;durP2;ratioP2;P2;SDS_P1;SDS_P2;PMS_P1;PMS_P2;Temp;Humidity;BMP_temperature;BMP_pressure;BME280_temperature;BME280_humidity;BME280_pressure;Samples;Min_cycle;Max_cycle;Signal;HPM_P1;HPM_P2
2021/06/12 00:00:00;;;;;;;2.17;1.97;;;;;;;19.60;69.70;100167.31;5104250;27;20245;-68
2021/06/12 00:02:27;;;;;;;2.00;1.80;;;;;;;19.60;70.73;100153.69;5103507;27;20896;-69
2021/06/12 00:04:55;;;;;;;2.20;1.97;;;;;;;19.53;70.56;100161.69;5105307;28;20203;-68
2021/06/12 00:07:23;;;;;;;2.00;1.80;;;;;;;18.99;71.39;100089.03;5101894;28;20252;-69
2021/06/12 00:09:50;;;;;;;5.70;1.93;;;;;;;19.40;71.65;100153.22;5101616;28;20249;-68
2021/06/12 00:12:18;;;;;;;2.63;1.93;;;;;;;19.37;71.16;100145.41;5107709;28;20248;-69
2021/06/12 00:14:47;;;;;;;3.33;2.00;;;;;;;19.46;69.07;100136.16;5106756;28;20284;-68
2021/06/12 00:17:18;;;;;;;4.20;2.30;;;;;;;19.37;70.60;100129.06;5104550;27;20218;-68
2021/06/12 00:19:45;;;;;;;3.30;2.57;;;;;;;19.38;70.74;100130.75;5103816;27;20282;-68
2021/06/12 00:22:13;;;;;;;2.37;2.17;;;;;;;19.46;70.15;100133.44;5105806;28;20691;-68
2021/06/12 00:24:41;;;;;;;2.77;2.33;;;;;;;19.51;69.40;100125.56;5107818;28;20572;-68
2021/06/12 00:27:09;;;;;;;3.30;2.67;;;;;;;19.30;70.35;100111.72;5106459;28;20299;-68
2021/06/12 00:29:37;;;;;;;2.83;2.50;;;;;;;19.37;71.01;100131.78;5106806;28;20192;-68
2021/06/12 00:32:06;;;;;;;2.40;2.20;;;;;;;19.39;70.96;100127.00;5102640;28;20661;-68
2021/06/12 00:34:34;;;;;;;2.90;2.57;;;;;;;19.47;69.88;100117.94;5099902;28;20200;-68
2021/06/12 00:37:03;;;;;;;4.00;2.80;;;;;;;19.29;71.54;100101.00;5104224;28;20192;-68
2021/06/12 00:39:30;;;;;;;3.53;2.57;;;;;;;19.38;70.08;100103.53;5103523;28;20859;-68
2021/06/12 00:41:58;;;;;;;2.90;2.40;;;;;;;19.39;70.30;100099.78;5101831;28;20230;-68
2021/06/12 00:44:25;;;;;;;3.23;2.63;;;;;;;19.24;70.84;100086.03;5106897;27;20196;-68
2021/06/12 00:46:53;;;;;;;3.23;2.90;;;;;;;19.30;70.74;100089.09;5109707;27;20712;-67
2021/06/12 00:49:21;;;;;;;2.97;2.53;;;;;;;19.28;70.28;100078.34;5107526;27;20195;-68
2021/06/12 00:51:49;;;;;;;4.30;2.90;;;;;;;19.49;69.36;100099.53;5108151;27;20198;-68
2021/06/12 00:54:17;;;;;;;3.73;2.90;;;;;;;19.50;68.64;100093.06;5107984;27;20199;-68
2021/06/12 00:56:45;;;;;;;4.20;2.93;;;;;;;19.51;68.25;100094.75;5107289;27;20199;-68
2021/06/12 00:59:13;;;;;;;5.67;2.90;;;;;;;19.46;69.84;100098.03;5106723;27;20643;-68
2021/06/12 01:01:49;;;;;;;3.00;2.70;;;;;;;19.18;67.90;100045.06;5104411;27;20263;-68
2021/06/12 01:04:17;;;;;;;3.57;2.90;;;;;;;19.35;67.71;100059.44;5102587;27;20196;-68
2021/06/12 01:06:49;;;;;;;3.00;2.63;;;;;;;19.42;69.10;100080.34;5105732;27;20206;-68
2021/06/12 01:09:19;;;;;;;3.27;2.60;;;;;;;19.37;68.17;100057.41;5105227;27;20654;-68
2021/06/12 01:11:56;;;;;;;3.23;2.60;;;;;;;19.41;69.03;100073.19;5105987;27;20199;-68
2021/06/12 01:14:26;;;;;;;3.13;2.70;;;;;;;19.42;69.15;100060.44;5102613;27;20313;-69
2021/06/12 01:17:02;;;;;;;2.70;2.50;;;;;;;19.41;69.18;100065.03;5106299;27;20227;-67
2021/06/12 01:20:02;;;;;;;3.30;2.70;;;;;;;19.40;69.79;100055.16;5100969;27;20713;-68
2021/06/12 01:22:37;;;;;;;2.90;2.60;;;;;;;19.37;68.78;100043.78;5107634;27;20647;-68
2021/06/12 01:25:14;;;;;;;3.10;2.80;;;;;;;19.34;69.43;100050.44;5108090;27;20187;-68
2021/06/12 01:28:16;;;;;;;4.07;3.13;;;;;;;19.32;70.52;100051.66;5109575;27;20580;-69
2021/06/12 01:30:49;;;;;;;4.27;3.03;;;;;;;19.22;70.83;100054.56;5105689;27;20294;-68
2021/06/12 01:33:17;;;;;;;3.37;2.93;;;;;;;19.12;71.21;100059.38;5103541;27;20204;-69
2021/06/12 01:35:48;;;;;;;3.07;2.77;;;;;;;19.08;72.59;100044.41;5106412;27;20209;-69
2021/06/12 01:38:19;;;;;;;4.40;2.70;;;;;;;19.10;71.60;100047.81;5106220;27;20196;-68
2021/06/12 01:40:48;;;;;;;3.23;2.77;;;;;;;19.02;72.49;100042.41;5111522;28;20226;-69
2021/06/12 01:43:19;;;;;;;4.00;2.83;;;;;;;18.98;72.89;100043.75;5107007;28;20211;-69
2021/06/12 01:45:49;;;;;;;4.63;2.73;;;;;;;18.96;73.20;100034.91;5106436;27;20192;-68
2021/06/12 01:48:17;;;;;;;6.60;3.13;;;;;;;18.93;73.86;100041.56;5102877;27;20203;-68
2021/06/12 01:50:45;;;;;;;4.17;2.60;;;;;;;18.96;71.69;100037.63;5104878;27;20196;-69
2021/06/12 01:53:16;;;;;;;3.20;2.57;;;;;;;18.94;71.94;100037.81;5106336;27;20658;-69
2021/06/12 01:55:46;;;;;;;2.93;2.63;;;;;;;18.88;72.49;100028.50;5106316;27;20614;-69
2021/06/12 01:58:19;;;;;;;3.07;2.77;;;;;;;18.79;73.62;100035.00;5105322;27;20195;-68
2021/06/12 02:00:48;;;;;;;3.20;2.80;;;;;;;18.76;74.42;100039.94;5107190;27;20203;-68
2021/06/12 02:03:17;;;;;;;3.20;2.90;;;;;;;18.69;74.78;100034.34;5104375;27;20651;-68
2021/06/12 02:05:45;;;;;;;4.37;2.80;;;;;;;18.59;73.38;99998.28;5105330;27;20564;-69
2021/06/12 02:08:14;;;;;;;5.17;2.80;;;;;;;18.76;73.54;100026.31;5116575;27;20282;-69
2021/06/12 02:10:43;;;;;;;5.70;2.93;;;;;;;18.63;75.43;100026.84;5106479;27;20253;-68
2021/06/12 02:13:11;;;;;;;5.40;3.27;;;;;;;18.48;75.73;100020.41;5102683;27;20536;-68
2021/06/12 02:15:40;;;;;;;3.43;2.80;;;;;;;18.57;76.86;100036.53;5103750;27;20262;-67
2021/06/12 02:18:11;;;;;;;4.03;2.77;;;;;;;18.46;76.16;100011.56;5103201;27;20567;-68
2021/06/12 02:20:40;;;;;;;3.00;2.70;;;;;;;18.64;73.89;100028.56;5100383;27;20203;-67
2021/06/12 02:23:09;;;;;;;3.60;3.00;;;;;;;18.56;73.82;100004.06;5103080;27;20580;-69
2021/06/12 02:25:37;;;;;;;5.07;2.90;;;;;;;18.70;73.31;100014.28;5106914;27;20535;-69
2021/06/12 02:28:07;;;;;;;5.33;3.20;;;;;;;18.63;73.85;100007.81;5103926;27;20196;-67
2021/06/12 02:30:42;;;;;;;3.30;2.87;;;;;;;18.74;72.42;100015.63;5103566;27;20208;-68
2021/06/12 02:33:13;;;;;;;3.07;2.77;;;;;;;18.64;74.20;100009.50;5121218;27;20202;-67
2021/06/12 02:35:41;;;;;;;4.53;2.83;;;;;;;18.53;75.18;100001.69;5103907;27;20195;-68
2021/06/12 02:38:10;;;;;;;4.77;3.23;;;;;;;18.31;74.92;99971.47;5103348;27;20208;-67
2021/06/12 02:40:37;;;;;;;3.70;2.60;;;;;;;18.65;73.43;99999.47;5104007;27;20211;-67
2021/06/12 02:43:05;;;;;;;2.97;2.60;;;;;;;18.58;73.13;99999.31;5104716;27;20216;-67
2021/06/12 02:45:33;;;;;;;3.07;2.60;;;;;;;18.59;72.20;99998.28;5102472;27;20199;-67
2021/06/12 02:48:04;;;;;;;5.37;2.77;;;;;;;18.56;73.08;100002.19;5107283;27;20210;-68
2021/06/12 02:50:35;;;;;;;2.90;2.60;;;;;;;18.37;73.66;99963.66;5106284;27;20448;-68
2021/06/12 02:53:04;;;;;;;3.73;2.77;;;;;;;18.52;72.95;99995.41;5106174;27;20203;-68
2021/06/12 02:55:41;;;;;;;3.43;2.60;;;;;;;18.52;72.97;99989.13;5104614;27;21358;-68
2021/06/12 02:58:10;;;;;;;5.43;2.80;;;;;;;18.40;74.72;99993.25;5104991;27;20211;-68
2021/06/12 03:00:39;;;;;;;4.13;2.97;;;;;;;18.12;74.86;99950.13;5104371;27;20195;-68
2021/06/12 03:03:07;;;;;;;3.47;2.90;;;;;;;18.31;75.20;99993.22;5106352;27;20289;-67
2021/06/12 03:05:38;;;;;;;3.90;3.00;;;;;;;18.38;73.93;99987.13;5102623;27;20196;-68
2021/06/12 03:08:09;;;;;;;3.50;2.70;;;;;;;18.40;73.01;99982.38;5103434;27;20278;-68
2021/06/12 03:10:37;;;;;;;3.10;2.80;;;;;;;18.36;73.41;99983.69;5120392;27;20287;-68
2021/06/12 03:13:09;;;;;;;3.70;2.80;;;;;;;18.36;73.75;99986.41;5106643;27;20195;-67
2021/06/12 03:15:38;;;;;;;2.90;2.60;;;;;;;18.29;73.92;99986.28;5101850;27;20192;-68
2021/06/12 03:18:06;;;;;;;2.70;2.50;;;;;;;18.33;73.69;99987.63;5103303;27;20204;-67
2021/06/12 03:20:36;;;;;;;3.80;2.67;;;;;;;18.19;73.69;99967.44;5103171;27;20272;-68
2021/06/12 03:23:07;;;;;;;3.90;2.70;;;;;;;18.35;72.52;99973.84;5105310;27;20714;-68
2021/06/12 03:25:37;;;;;;;3.77;2.83;;;;;;;18.42;71.27;99970.28;5103685;28;20301;-67
2021/06/12 03:28:05;;;;;;;3.40;2.80;;;;;;;18.22;72.11;99956.22;5104541;28;20768;-67
2021/06/12 03:30:33;;;;;;;4.63;2.90;;;;;;;18.32;72.75;99966.88;5106020;28;20207;-67
2021/06/12 03:33:02;;;;;;;3.57;2.70;;;;;;;18.39;71.41;99970.63;5103783;28;20211;-68
2021/06/12 03:35:31;;;;;;;3.37;2.70;;;;;;;18.37;72.72;99958.22;5101057;27;20210;-68
2021/06/12 03:37:59;;;;;;;3.80;2.93;;;;;;;18.31;72.87;99959.75;5104161;27;20192;-68
2021/06/12 03:40:28;;;;;;;4.13;2.70;;;;;;;18.27;73.31;99961.13;5105763;28;20203;-67
2021/06/12 03:42:57;;;;;;;7.67;2.93;;;;;;;18.20;73.50;99966.41;5106165;28;20216;-68
2021/06/12 03:45:25;;;;;;;2.83;2.40;;;;;;;18.14;74.35;99964.41;5107023;28;20204;-68
2021/06/12 03:47:54;;;;;;;7.50;2.57;;;;;;;18.21;72.90;99965.41;5106107;28;20203;-69
2021/06/12 03:50:25;;;;;;;4.80;2.50;;;;;;;18.08;73.28;99959.66;5107440;28;20196;-69
2021/06/12 03:52:53;;;;;;;3.33;2.43;;;;;;;18.20;72.16;99960.13;5105700;28;20204;-67
2021/06/12 03:55:22;;;;;;;3.40;2.23;;;;;;;18.09;72.60;99955.91;5106840;28;20207;-67
2021/06/12 03:57:51;;;;;;;2.70;2.30;;;;;;;18.14;71.77;99955.38;5105513;28;20188;-67
2021/06/12 04:00:20;;;;;;;3.23;2.40;;;;;;;18.16;73.57;99959.63;5106056;28;20402;-68
2021/06/12 04:02:49;;;;;;;3.97;2.50;;;;;;;18.17;71.93;99952.31;5105872;28;20219;-68
2021/06/12 04:05:17;;;;;;;5.70;2.17;;;;;;;18.16;72.42;99950.63;5106995;28;20250;-68
2021/06/12 04:07:45;;;;;;;3.87;2.23;;;;;;;18.12;72.40;99955.56;5113455;27;20567;-68
2021/06/12 04:10:13;;;;;;;2.43;2.23;;;;;;;18.18;71.76;99957.59;5107633;28;20537;-68
2021/06/12 04:12:41;;;;;;;3.50;2.10;;;;;;;18.16;72.41;99959.63;5105301;28;20203;-68
2021/06/12 04:15:11;;;;;;;2.63;1.93;;;;;;;18.15;72.35;99940.78;5107617;27;20246;-70
2021/06/12 04:17:40;;;;;;;2.30;2.03;;;;;;;18.23;72.01;99936.16;5101096;28;20203;-70
2021/06/12 04:20:08;;;;;;;3.83;2.27;;;;;;;18.05;73.07;99921.06;5105753;28;20599;-71
2021/06/12 04:22:36;;;;;;;2.13;1.80;;;;;;;18.18;72.53;99937.72;5107641;28;20392;-70
2021/06/12 04:25:04;;;;;;;2.13;1.93;;;;;;;18.13;72.30;99934.66;5106997;28;20722;-70
2021/06/12 04:27:33;;;;;;;2.60;2.07;;;;;;;18.09;71.93;99931.44;5106546;28;20215;-70
2021/06/12 04:30:01;;;;;;;4.57;1.90;;;;;;;18.07;70.73;99924.50;5106195;28;20253;-71
2021/06/12 04:32:30;;;;;;;1.70;1.60;;;;;;;18.14;69.76;99923.63;5106725;28;20256;-71
2021/06/12 04:34:58;;;;;;;1.90;1.70;;;;;;;18.08;70.00;99931.63;5108004;28;20202;-71
2021/06/12 04:37:25;;;;;;;2.13;1.77;;;;;;;18.03;69.04;99912.25;5099430;28;20694;-70
2021/06/12 04:39:53;;;;;;;1.53;1.43;;;;;;;18.05;69.42;99921.06;5106180;28;20188;-69
2021/06/12 04:42:20;;;;;;;3.10;1.67;;;;;;;18.04;68.66;99920.22;5105459;28;20697;-69
2021/06/12 04:44:48;;;;;;;1.70;1.50;;;;;;;18.06;69.01;99918.22;5106893;28;20580;-70
2021/06/12 04:47:16;;;;;;;1.47;1.37;;;;;;;18.08;68.65;99916.16;5106643;28;20669;-69
2021/06/12 04:49:45;;;;;;;3.47;1.90;;;;;;;17.99;69.64;99909.03;5108347;28;20257;-68
2021/06/12 04:52:12;;;;;;;1.60;1.50;;;;;;;18.11;69.63;99917.69;5106571;28;20198;-69
2021/06/12 04:54:40;;;;;;;1.43;1.33;;;;;;;18.18;69.14;99910.53;5104727;28;20667;-70
2021/06/12 04:57:08;;;;;;;2.17;1.53;;;;;;;18.17;69.20;99906.97;5107306;28;20264;-69
2021/06/12 04:59:36;;;;;;;2.13;1.60;;;;;;;18.24;69.45;99909.84;5106289;28;20229;-68
2021/06/12 05:02:04;;;;;;;2.77;1.63;;;;;;;18.44;68.07;99902.13;5104841;28;20268;-69
2021/06/12 05:04:31;;;;;;;2.30;1.43;;;;;;;18.49;68.02;99895.16;5105607;28;20220;-69
2021/06/12 05:07:00;;;;;;;1.90;1.47;;;;;;;18.36;68.02;99875.81;5103396;28;20737;-69
2021/06/12 05:09:28;;;;;;;1.40;1.30;;;;;;;18.49;69.00;99891.56;5104556;28;20252;-69
2021/06/12 05:11:55;;;;;;;1.87;1.40;;;;;;;18.60;67.74;99888.47;5105238;28;20200;-68
2021/06/12 05:14:23;;;;;;;4.30;1.57;;;;;;;18.81;67.28;99880.56;5103405;28;20250;-68
2021/06/12 05:16:51;;;;;;;1.40;1.27;;;;;;;18.73;65.83;99833.53;5107225;28;20196;-69
2021/06/12 05:19:18;;;;;;;2.97;1.60;;;;;;;19.25;65.12;99877.22;5105053;28;20243;-69
2021/06/12 05:21:47;;;;;;;2.93;1.60;;;;;;;19.33;63.94;99840.94;5112571;28;20195;-69
2021/06/12 05:24:16;;;;;;;2.37;1.40;;;;;;;19.41;63.86;99817.19;5110243;28;20305;-70
2021/06/12 05:26:43;;;;;;;2.83;1.53;;;;;;;19.94;62.87;99872.59;5099639;28;20204;-69
2021/06/12 05:29:11;;;;;;;1.50;1.40;;;;;;;20.01;63.44;99879.00;5107841;27;20196;-69
2021/06/12 05:31:39;;;;;;;2.83;1.60;;;;;;;20.45;61.69;99880.91;5103527;27;20210;-68
2021/06/12 05:34:06;;;;;;;1.50;1.40;;;;;;;20.61;61.17;99863.50;5103503;28;20818;-69
2021/06/12 05:36:34;;;;;;;1.93;1.33;;;;;;;20.82;60.82;99859.97;5101830;27;20203;-69
2021/06/12 05:39:04;;;;;;;1.47;1.37;;;;;;;21.27;58.19;99859.66;5110118;28;20195;-69
2021/06/12 05:41:33;;;;;;;1.40;1.30;;;;;;;21.35;58.58;99865.00;5119607;27;20268;-69
2021/06/12 05:44:01;;;;;;;6.33;1.70;;;;;;;21.29;57.59;99845.81;5109123;28;20220;-68
2021/06/12 05:46:29;;;;;;;1.93;1.40;;;;;;;21.48;57.60;99860.72;5108197;27;20246;-69
2021/06/12 05:48:56;;;;;;;1.40;1.30;;;;;;;21.68;57.34;99853.50;5110074;28;20218;-69
2021/06/12 05:51:24;;;;;;;2.23;1.30;;;;;;;21.81;57.26;99855.53;5108261;27;20585;-69
2021/06/12 05:53:51;;;;;;;1.33;1.23;;;;;;;21.88;56.25;99846.31;5109519;28;20196;-69
2021/06/12 05:56:19;;;;;;;1.93;1.33;;;;;;;21.97;55.09;99842.38;5107142;27;20545;-68
2021/06/12 05:58:48;;;;;;;2.57;1.53;;;;;;;21.40;56.15;99812.50;5109286;28;20203;-70
2021/06/12 06:01:16;;;;;;;3.23;1.50;;;;;;;21.49;56.01;99854.19;5107899;27;20200;-70
2021/06/12 06:03:44;;;;;;;1.70;1.23;;;;;;;21.28;56.05;99817.66;5110479;27;20685;-69
2021/06/12 06:06:11;;;;;;;2.23;1.23;;;;;;;21.59;55.16;99841.03;5105822;27;20776;-70
2021/06/12 06:08:39;;;;;;;2.07;1.70;;;;;;;21.89;55.28;99823.41;5107332;28;20613;-70
2021/06/12 06:11:06;;;;;;;2.70;1.40;;;;;;;22.10;54.57;99832.63;5106693;28;20200;-70
2021/06/12 06:13:37;;;;;;;4.17;1.60;;;;;;;22.02;55.60;99826.19;5106385;28;21026;-70
2021/06/12 06:16:07;;;;;;;3.10;1.50;;;;;;;22.37;54.57;99828.13;5107629;28;20838;-70
2021/06/12 06:18:35;;;;;;;3.17;1.20;;;;;;;22.39;53.39;99826.88;5105118;27;20204;-72
2021/06/12 06:21:04;;;;;;;6.90;1.50;;;;;;;22.35;53.01;99811.94;5105918;28;20274;-70
2021/06/12 06:23:32;;;;;;;2.30;1.40;;;;;;;22.38;53.20;99822.47;5123019;27;20204;-70
2021/06/12 06:26:00;;;;;;;4.73;1.47;;;;;;;22.91;51.28;99822.69;5106101;27;20196;-71
2021/06/12 06:28:28;;;;;;;2.60;1.40;;;;;;;23.19;51.28;99826.09;5108143;28;20743;-71
2021/06/12 06:30:56;;;;;;;1.50;1.30;;;;;;;23.29;50.75;99801.06;5106095;28;20200;-71
2021/06/12 06:33:26;;;;;;;3.30;1.50;;;;;;;23.59;50.88;99798.78;5106844;28;20283;-71
2021/06/12 06:35:54;;;;;;;2.57;1.17;;;;;;;24.01;49.25;99802.09;5107093;28;20200;-71
2021/06/12 06:38:22;;;;;;;4.47;1.63;;;;;;;24.16;47.98;99799.91;5106379;28;20288;-71
2021/06/12 06:40:50;;;;;;;2.33;1.20;;;;;;;24.08;48.29;99805.66;5104452;28;20207;-71
2021/06/12 06:43:19;;;;;;;3.40;1.50;;;;;;;23.90;47.82;99797.25;5105399;28;20227;-70
2021/06/12 06:45:48;;;;;;;2.20;1.47;;;;;;;23.95;46.47;99805.69;5108111;28;20220;-71
2021/06/12 06:48:16;;;;;;;3.13;1.67;;;;;;;23.90;47.24;99802.75;5108308;28;20242;-71
2021/06/12 06:50:47;;;;;;;2.07;1.60;;;;;;;23.53;47.56;99791.34;5105675;28;20219;-71
2021/06/12 06:53:15;;;;;;;3.00;1.87;;;;;;;23.34;48.78;99804.00;5104934;28;20197;-71
2021/06/12 06:55:43;;;;;;;2.30;1.60;;;;;;;23.56;48.59;99799.16;5108722;27;20230;-71
2021/06/12 06:58:12;;;;;;;3.57;1.40;;;;;;;23.61;48.13;99779.38;5107819;28;20822;-70
2021/06/12 07:00:40;;;;;;;2.67;1.40;;;;;;;23.95;47.86;99790.06;5106140;28;20198;-70
2021/06/12 07:03:08;;;;;;;2.67;1.63;;;;;;;24.06;48.25;99786.66;5107563;28;20204;-70
2021/06/12 07:05:36;;;;;;;2.03;1.50;;;;;;;24.23;47.95;99792.53;5104918;28;20226;-70
2021/06/12 07:08:06;;;;;;;2.20;1.35;;;;;;;23.94;47.34;99766.44;5103491;28;20202;-70
2021/06/12 07:10:34;;;;;;;4.23;1.23;;;;;;;24.31;47.53;99789.56;5102588;28;20199;-70
2021/06/12 07:13:03;;;;;;;2.17;1.50;;;;;;;24.46;47.88;99781.91;5102676;28;20654;-70
2021/06/12 07:15:31;;;;;;;5.63;1.85;;;;;;;24.71;46.81;99783.91;5105860;28;20243;-70
2021/06/12 07:17:58;;;;;;;2.65;1.25;;;;;;;24.84;46.04;99761.88;5107867;28;20192;-70
2021/06/12 07:20:26;;;;;;;3.58;1.50;;;;;;;24.98;45.46;99784.59;5105840;28;20196;-70
2021/06/12 07:22:55;;;;;;;4.80;1.65;;;;;;;24.71;45.70;99757.28;5105613;28;20203;-71
2021/06/12 07:25:26;;;;;;;3.65;1.40;;;;;;;24.92;45.32;99786.31;5107735;28;20219;-69
2021/06/12 07:27:54;;;;;;;4.80;1.45;;;;;;;24.48;45.22;99778.09;5104786;28;20670;-70
2021/06/12 07:30:22;;;;;;;2.63;1.40;;;;;;;24.47;45.17;99782.75;5097744;28;20261;-69
2021/06/12 07:32:50;;;;;;;2.58;1.38;;;;;;;24.09;45.94;99774.41;5107787;28;20206;-69
2021/06/12 07:35:18;;;;;;;2.15;0.95;;;;;;;23.99;45.85;99774.03;5108188;28;20184;-70
2021/06/12 07:37:45;;;;;;;1.50;1.23;;;;;;;23.30;46.58;99771.75;5104767;28;20673;-70
2021/06/12 07:40:14;;;;;;;3.20;1.43;;;;;;;22.99;46.84;99772.38;5106121;28;20241;-70
2021/06/12 07:42:44;;;;;;;8.67;1.20;;;;;;;23.23;47.14;99783.53;5107802;28;20573;-70
2021/06/12 07:45:12;;;;;;;4.90;1.43;;;;;;;23.21;47.70;99776.56;5102413;28;20223;-70
2021/06/12 07:47:40;;;;;;;4.23;1.53;;;;;;;23.23;48.25;99785.44;5107373;28;20346;-70
2021/06/12 07:50:09;;;;;;;3.30;1.27;;;;;;;23.34;46.25;99765.63;5102374;28;20200;-69
2021/06/12 07:52:36;;;;;;;4.03;1.30;;;;;;;23.47;46.17;99778.47;5106065;28;20206;-70
2021/06/12 07:55:05;;;;;;;4.60;1.53;;;;;;;23.47;46.33;99775.75;5107426;28;20210;-69
2021/06/12 07:57:33;;;;;;;3.03;1.10;;;;;;;23.63;46.64;99753.44;5106556;27;20200;-69
2021/06/12 08:00:04;;;;;;;6.10;1.27;;;;;;;24.08;45.66;99768.09;5107309;28;20224;-70
2021/06/12 08:02:39;;;;;;;4.07;1.30;;;;;;;24.05;45.74;99756.69;5103600;28;20652;-68
2021/06/12 08:05:08;;;;;;;3.00;1.50;;;;;;;23.95;45.80;99772.78;5103962;28;20211;-70
2021/06/12 08:07:36;;;;;;;2.67;1.50;;;;;;;23.92;45.93;99770.47;5106628;28;20226;-70
2021/06/12 08:10:04;;;;;;;2.50;1.30;;;;;;;23.84;45.97;99771.50;5106616;28;20196;-69
2021/06/12 08:12:32;;;;;;;3.97;1.20;;;;;;;23.77;45.75;99766.03;5103544;28;20279;-70
2021/06/12 08:15:00;;;;;;;1.90;1.17;;;;;;;23.81;45.32;99728.91;5106511;28;20307;-70
2021/06/12 08:17:29;;;;;;;2.43;1.50;;;;;;;24.00;45.85;99742.78;5105189;28;20286;-71
2021/06/12 08:19:57;;;;;;;3.00;1.20;;;;;;;23.88;45.28;99722.56;5106924;28;20198;-70
2021/06/12 08:22:26;;;;;;;2.27;1.10;;;;;;;24.05;45.32;99767.66;5106044;28;20602;-71
2021/06/12 08:24:53;;;;;;;1.40;1.30;;;;;;;24.24;45.17;99758.53;5103528;28;20212;-69
2021/06/12 08:27:21;;;;;;;3.10;1.37;;;;;;;23.56;46.10;99754.47;5106300;28;20204;-70
2021/06/12 08:29:49;;;;;;;2.00;1.20;;;;;;;23.49;46.63;99757.19;5102203;28;20200;-70
2021/06/12 08:32:18;;;;;;;2.60;1.60;;;;;;;23.18;46.96;99761.41;5107617;28;20658;-69
2021/06/12 08:34:47;;;;;;;1.63;1.30;;;;;;;23.18;46.15;99736.75;5116398;27;20196;-69
2021/06/12 08:37:15;;;;;;;2.37;1.50;;;;;;;23.18;46.75;99755.94;5117308;28;20291;-70
2021/06/12 08:39:43;;;;;;;2.40;1.57;;;;;;;23.14;47.31;99754.66;5103288;28;20204;-71
2021/06/12 08:42:11;;;;;;;2.93;1.30;;;;;;;23.05;47.52;99758.66;5105751;28;20192;-70
2021/06/12 08:44:41;;;;;;;3.00;1.40;;;;;;;23.04;47.45;99767.94;5105763;28;20716;-71
2021/06/12 08:47:09;;;;;;;1.43;1.20;;;;;;;23.10;47.65;99769.00;5107296;28;20199;-71
2021/06/12 08:49:38;;;;;;;1.97;1.47;;;;;;;22.89;47.50;99757.16;5106288;28;20769;-71
2021/06/12 08:52:08;;;;;;;1.67;1.17;;;;;;;23.22;47.29;99767.31;5103489;28;20280;-71
2021/06/12 08:54:36;;;;;;;3.00;1.23;;;;;;;23.20;47.57;99758.44;5103773;28;20238;-70
2021/06/12 08:57:04;;;;;;;3.97;1.97;;;;;;;23.20;47.69;99770.25;5106015;28;20268;-71
2021/06/12 08:59:35;;;;;;;2.70;1.40;;;;;;;23.35;47.13;99737.19;5094432;28;20204;-69
2021/06/12 09:02:04;;;;;;;2.73;1.43;;;;;;;23.73;46.45;99767.53;5099229;28;20195;-70
2021/06/12 09:04:34;;;;;;;5.97;1.93;;;;;;;23.59;47.23;99762.28;5105607;28;20279;-71
2021/06/12 09:07:20;;;;;;;4.83;1.37;;;;;;;23.57;46.33;99735.06;5110286;28;20200;-71
2021/06/12 09:09:49;;;;;;;1.70;1.20;;;;;;;23.31;47.13;99763.31;5108911;28;20275;-69
2021/06/12 09:12:18;;;;;;;5.43;1.20;;;;;;;23.22;47.66;99759.94;5101310;28;20206;-71
2021/06/12 09:15:09;;;;;;;3.23;1.60;;;;;;;23.32;47.47;99762.28;5109737;28;20224;-72
2021/06/12 09:17:41;;;;;;;2.77;1.30;;;;;;;23.39;47.15;99724.75;5108995;28;20224;-69
2021/06/12 09:20:12;;;;;;;2.33;1.60;;;;;;;23.81;47.20;99739.88;5116252;27;20261;-71
2021/06/12 09:22:41;;;;;;;2.23;1.40;;;;;;;23.97;47.11;99748.72;5108724;27;20213;-71
2021/06/12 09:25:11;;;;;;;3.43;1.53;;;;;;;23.90;47.61;99740.50;5109738;28;20243;-70
2021/06/12 09:27:39;;;;;;;2.80;1.23;;;;;;;23.98;46.99;99736.69;5104081;28;20188;-70
2021/06/12 09:30:08;;;;;;;2.67;1.33;;;;;;;24.26;46.97;99739.97;5111353;28;20199;-70
2021/06/12 09:32:46;;;;;;;1.40;1.30;;;;;;;24.57;46.47;99728.22;5109875;28;20271;-70
2021/06/12 09:35:14;;;;;;;2.90;1.30;;;;;;;24.54;46.16;99692.97;5111110;28;20253;-70
2021/06/12 09:37:45;;;;;;;3.53;1.40;;;;;;;24.98;46.14;99715.91;5109811;27;20192;-70
2021/06/12 09:40:15;;;;;;;6.33;1.50;;;;;;;25.22;44.70;99730.75;5108092;28;20659;-71
2021/06/12 09:42:45;;;;;;;1.53;1.30;;;;;;;25.16;43.58;99718.75;5108533;28;20196;-71
2021/06/12 09:45:16;;;;;;;1.77;1.10;;;;;;;25.21;44.52;99727.16;5103385;28;20211;-71
2021/06/12 09:47:44;;;;;;;3.10;1.57;;;;;;;25.22;44.64;99725.25;5108924;28;20562;-71
2021/06/12 09:50:15;;;;;;;4.30;1.40;;;;;;;25.06;43.99;99705.50;5109355;28;20586;-72
2021/06/12 09:52:46;;;;;;;1.25;1.15;;;;;;;25.02;43.67;99718.00;5109846;28;20256;-71
2021/06/12 09:55:26;;;;;;;1.88;1.20;;;;;;;24.93;43.37;99705.56;5110529;28;20275;-71
2021/06/12 09:57:56;;;;;;;1.75;1.20;;;;;;;24.87;43.52;99711.13;5106240;27;20956;-71
2021/06/12 10:00:34;;;;;;;3.67;1.65;;;;;;;24.70;44.49;99705.31;5109560;28;20222;-71
2021/06/12 10:03:02;;;;;;;3.03;1.50;;;;;;;25.01;43.95;99696.25;5108451;28;20431;-71
2021/06/12 10:05:30;;;;;;;6.45;1.90;;;;;;;24.82;44.33;99692.56;5110456;27;20214;-71
2021/06/12 10:08:01;;;;;;;4.07;1.48;;;;;;;24.73;45.03;99707.63;5109308;28;20196;-71
2021/06/12 10:10:30;;;;;;;80.00;10.43;;;;;;;24.46;45.22;99709.69;5107410;28;20204;-71
2021/06/12 10:12:59;;;;;;;10.27;2.60;;;;;;;24.47;44.72;99700.38;5110844;27;20192;-71
2021/06/12 10:15:28;;;;;;;4.60;1.70;;;;;;;24.71;45.01;99713.34;5107955;28;20503;-71
2021/06/12 10:17:57;;;;;;;3.67;1.57;;;;;;;24.53;44.75;99672.06;5101010;28;20448;-70
2021/06/12 10:20:26;;;;;;;3.15;1.58;;;;;;;24.50;44.83;99688.97;5109985;28;20916;-71
2021/06/12 10:22:56;;;;;;;3.20;1.30;;;;;;;24.66;45.38;99676.63;5107888;28;20655;-71
2021/06/12 10:25:25;;;;;;;1.77;1.20;;;;;;;24.67;45.13;99690.13;5108050;28;20208;-71
2021/06/12 10:27:53;;;;;;;4.38;1.50;;;;;;;24.48;44.17;99673.75;5106576;27;20652;-71
2021/06/12 10:30:24;;;;;;;3.20;1.30;;;;;;;24.35;45.36;99678.28;5110907;28;20283;-71
2021/06/12 10:32:55;;;;;;;2.97;1.20;;;;;;;24.56;45.10;99679.00;5108772;27;20282;-70
2021/06/12 10:35:26;;;;;;;1.40;1.30;;;;;;;24.52;44.66;99670.38;5110074;28;20188;-70
2021/06/12 10:37:56;;;;;;;1.20;1.13;;;;;;;24.56;43.97;99681.75;5109025;28;20211;-71
2021/06/12 10:40:41;;;;;;;2.33;1.37;;;;;;;24.32;44.61;99697.09;5104581;28;20196;-71
2021/06/12 10:43:13;;;;;;;3.00;1.10;;;;;;;24.07;44.61;99689.56;5109546;27;20199;-71
2021/06/12 10:45:41;;;;;;;6.00;1.20;;;;;;;23.94;44.73;99683.31;5107397;28;20212;-70
2021/06/12 10:48:09;;;;;;;2.93;1.40;;;;;;;23.90;44.34;99685.66;5109460;28;20207;-70
2021/06/12 10:50:44;;;;;;;1.27;1.17;;;;;;;23.98;44.21;99682.66;5106592;28;20204;-70
2021/06/12 10:53:21;;;;;;;1.13;1.13;;;;;;;23.86;44.84;99673.41;5105219;27;20257;-70
2021/06/12 10:55:52;;;;;;;1.17;0.90;;;;;;;23.61;45.26;99667.81;5108555;28;20199;-71
2021/06/12 10:58:45;;;;;;;2.00;1.20;;;;;;;23.58;45.56;99678.38;5107713;28;20188;-71
2021/06/12 11:01:16;;;;;;;1.30;1.10;;;;;;;23.64;45.44;99672.84;5107188;28;20200;-71
2021/06/12 11:03:54;;;;;;;1.93;1.00;;;;;;;23.61;46.03;99656.84;5107140;28;20240;-71
2021/06/12 11:06:45;;;;;;;1.63;1.03;;;;;;;23.87;45.41;99655.88;5105207;28;20227;-70
2021/06/12 11:09:40;;;;;;;1.30;1.27;;;;;;;23.87;45.56;99660.53;5092103;28;20220;-71
2021/06/12 11:12:33;;;;;;;3.23;1.00;;;;;;;23.81;45.40;99657.59;5109611;28;20241;-69
2021/06/12 11:15:06;;;;;;;2.93;1.03;;;;;;;23.71;45.30;99650.91;5103098;28;20660;-70
2021/06/12 11:17:34;;;;;;;1.37;1.00;;;;;;;23.55;45.55;99652.16;5108160;28;20658;-70
2021/06/12 11:20:26;;;;;;;2.67;1.00;;;;;;;23.40;45.98;99648.84;5108507;28;20245;-71
2021/06/12 11:23:05;;;;;;;0.90;0.90;;;;;;;23.49;45.36;99653.03;5107651;28;20231;-74
2021/06/12 11:25:38;;;;;;;1.23;1.10;;;;;;;23.46;45.32;99647.97;5096595;28;20220;-74
2021/06/12 11:28:31;;;;;;;4.17;1.40;;;;;;;23.35;45.52;99656.88;5099766;27;20570;-71
2021/06/12 11:31:39;;;;;;;1.90;1.20;;;;;;;23.22;46.15;99652.22;5107057;27;20200;-71
2021/06/12 11:34:22;;;;;;;3.87;1.50;;;;;;;23.15;46.09;99645.91;5102524;28;20211;-71
2021/06/12 11:37:12;;;;;;;1.43;1.33;;;;;;;23.21;47.21;99645.06;5104538;27;20268;-71
2021/06/12 11:39:51;;;;;;;3.13;1.50;;;;;;;23.11;46.46;99607.16;5106894;28;20609;-71
2021/06/12 11:42:25;;;;;;;1.70;1.47;;;;;;;23.61;46.08;99634.91;5105659;27;20192;-72
2021/06/12 11:45:18;;;;;;;1.83;1.10;;;;;;;23.69;46.24;99637.41;5105359;27;20227;-72